Time;durP1;ratioP1;P1;durP2;ratioP2;P2;SDS_P1;SDS_P2;PMS_P1;PMS_P2;Temp;Humidity;BMP_temperature;BMP_pressure;BME280_temperature;BME280_humidity;BME280_pressure;Samples;Min_cycle;Max_cycle;Signal;HPM_P1;HPM_P2
2022/07/23 00:00:07;;;;;;;;;;;16.20;99.90;;;;;;5083883;28;20345;-80
2022/07/23 00:02:37;;;;;;;;;;;16.30;99.90;;;;;;5082496;28;20631;-80
2022/07/23 00:05:03;;;;;;;;;;;16.30;99.90;;;;;;5081618;28;19928;-80
2022/07/23 00:07:31;;;;;;;;;;;16.30;99.90;;;;;;5067508;28;19920;-80
2022/07/23 00:09:58;;;;;;;;;;;16.30;99.90;;;;;;5066312;28;19942;-78
2022/07/23 00:12:25;;;;;;;;;;;16.20;99.90;;;;;;5065274;28;19928;-79
2022/07/23 00:14:52;;;;;;;;;;;16.20;99.90;;;;;;5068658;28;19938;-79
2022/07/23 00:17:21;;;;;;;;;;;16.20;99.90;;;;;;5086899;28;19997;-79
2022/07/23 00:19:48;;;;;;;;;;;16.20;99.90;;;;;;5073562;28;19928;-78
2022/07/23 00:22:20;;;;;;;;;;;16.20;99.90;;;;;;5085605;28;19989;-81
2022/07/23 00:24:53;;;;;;;;;;;16.20;99.90;;;;;;5065047;28;19935;-80
2022/07/23 00:27:19;;;;;;;;;;;16.10;99.90;;;;;;5061782;28;20327;-79
2022/07/23 00:29:46;;;;;;;;;;;16.10;99.90;;;;;;5065843;28;20878;-79
2022/07/23 00:32:13;;;;;;;;;;;16.10;99.90;;;;;;5075346;28;19939;-79
2022/07/23 00:34:40;;;;;;;;;;;16.10;99.90;;;;;;5052101;28;20315;-79
2022/07/23 00:37:08;;;;;;;;;;;16.10;99.90;;;;;;5058178;28;19924;-79
2022/07/23 00:39:37;;;;;;;;;;;16.10;99.90;;;;;;5082593;28;19928;-82
2022/07/23 00:42:06;;;;;;;;;;;16.10;99.90;;;;;;5062718;28;19928;-80
2022/07/23 00:44:33;;;;;;;;;;;16.10;99.90;;;;;;5062198;28;19940;-79
2022/07/23 00:47:00;;;;;;;;;;;16.00;99.90;;;;;;5052354;28;19927;-80
2022/07/23 00:49:28;;;;;;;;;;;16.00;99.90;;;;;;5081864;28;19932;-79
2022/07/23 00:51:56;;;;;;;;;;;16.00;99.90;;;;;;5077066;28;20046;-79
2022/07/23 00:56:51;;;;;;;;;;;16.00;99.90;;;;;;5043011;28;21359;-74
2022/07/23 00:59:19;;;;;;;;;;;16.00;99.90;;;;;;5035317;28;19929;-74
2022/07/23 01:01:48;;;;;;;;;;;16.10;99.90;;;;;;5038094;28;19928;-74
2022/07/23 01:04:16;;;;;;;;;;;16.10;99.90;;;;;;5036505;28;19968;-74
2022/07/23 01:06:43;;;;;;;;;;;16.10;99.90;;;;;;5035291;28;20004;-74
2022/07/23 01:09:10;;;;;;;;;;;16.00;99.90;;;;;;5034727;28;19944;-74
2022/07/23 01:11:37;;;;;;;;;;;16.00;99.90;;;;;;5029149;28;20366;-74
2022/07/23 01:14:10;;;;;;;;;;;16.10;99.90;;;;;;5028862;28;20368;-74
2022/07/23 01:16:38;;;;;;;;;;;16.00;99.90;;;;;;5027935;28;20026;-76
2022/07/23 01:19:06;;;;;;;;;;;16.00;99.90;;;;;;5006735;28;19935;-75
2022/07/23 01:21:34;;;;;;;;;;;16.10;99.90;;;;;;5011081;28;19929;-75
2022/07/23 01:24:02;;;;;;;;;;;16.10;99.90;;;;;;5015129;28;19936;-75
2022/07/23 01:26:29;;;;;;;;;;;16.20;99.90;;;;;;5011782;28;19929;-75
2022/07/23 01:28:56;;;;;;;;;;;16.20;99.90;;;;;;5011045;28;21134;-75
2022/07/23 01:31:22;;;;;;;;;;;16.20;99.90;;;;;;5009817;28;19929;-75
2022/07/23 01:33:49;;;;;;;;;;;16.20;99.90;;;;;;5008705;28;19929;-75
2022/07/23 01:36:16;;;;;;;;;;;16.10;99.90;;;;;;5002753;28;20027;-75
2022/07/23 01:38:43;;;;;;;;;;;16.20;99.90;;;;;;5008885;28;19929;-75
2022/07/23 01:41:11;;;;;;;;;;;16.10;99.90;;;;;;5031475;28;20297;-75
2022/07/23 01:43:37;;;;;;;;;;;16.10;99.90;;;;;;5013490;28;20357;-75
2022/07/23 01:46:04;;;;;;;;;;;16.10;99.90;;;;;;5009279;28;19936;-75
2022/07/23 01:48:38;;;;;;;;;;;16.10;99.90;;;;;;5017062;28;20009;-75
2022/07/23 01:51:59;;;;;;;;;;;16.10;99.90;;;;;;5014906;28;19991;-75
2022/07/23 01:54:26;;;;;;;;;;;16.00;99.90;;;;;;5010284;28;20292;-75
2022/07/23 01:56:54;;;;;;;;;;;15.90;99.90;;;;;;5014493;28;19929;-75
2022/07/23 01:59:21;;;;;;;;;;;15.90;99.90;;;;;;5018449;28;19928;-75
2022/07/23 02:01:48;;;;;;;;;;;15.90;99.90;;;;;;5025395;28;20023;-75
2022/07/23 02:04:15;;;;;;;;;;;15.80;99.90;;;;;;5035375;28;19928;-74
2022/07/23 02:06:41;;;;;;;;;;;15.80;99.90;;;;;;5014300;28;19929;-74
2022/07/23 02:09:08;;;;;;;;;;;15.80;99.90;;;;;;5039652;28;19962;-74
2022/07/23 02:11:35;;;;;;;;;;;15.80;99.90;;;;;;5035174;28;20115;-76
2022/07/23 02:14:03;;;;;;;;;;;17.30;99.90;;;;;;5035438;28;20294;-74
2022/07/23 02:16:30;;;;;;;;;;;15.70;99.90;;;;;;5014920;28;19932;-74
2022/07/23 02:19:03;;;;;;;;;;;15.70;99.90;;;;;;5036349;28;19939;-74
2022/07/23 02:21:29;;;;;;;;;;;15.60;99.90;;;;;;5015643;28;20390;-74
2022/07/23 02:23:56;;;;;;;;;;;15.60;99.90;;;;;;5016894;28;19983;-74
2022/07/23 02:26:23;;;;;;;;;;;15.50;99.90;;;;;;5013972;28;19928;-74
2022/07/23 02:28:52;;;;;;;;;;;15.50;99.90;;;;;;5015232;28;20013;-74
2022/07/23 02:31:21;;;;;;;;;;;15.40;99.90;;;;;;5013241;28;20019;-74
2022/07/23 02:33:47;;;;;;;;;;;15.60;99.90;;;;;;5015492;28;19929;-74
2022/07/23 02:36:16;;;;;;;;;;;15.40;99.90;;;;;;5014515;28;19936;-76
2022/07/23 02:38:43;;;;;;;;;;;15.50;99.90;;;;;;5014916;28;20019;-76
2022/07/23 02:41:10;;;;;;;;;;;15.50;99.90;;;;;;5011930;28;20065;-74
2022/07/23 02:43:38;;;;;;;;;;;15.50;99.90;;;;;;5012557;28;19960;-76
2022/07/23 02:46:05;;;;;;;;;;;15.50;99.90;;;;;;5005595;28;19935;-75
2022/07/23 02:48:33;;;;;;;;;;;15.50;99.90;;;;;;5015199;28;19928;-75
2022/07/23 02:51:00;;;;;;;;;;;15.40;99.90;;;;;;5029426;28;20180;-75
2022/07/23 02:53:34;;;;;;;;;;;15.40;99.90;;;;;;5015065;28;20439;-75
2022/07/23 02:56:00;;;;;;;;;;;15.40;99.90;;;;;;5013696;28;20007;-75
2022/07/23 02:58:27;;;;;;;;;;;14.40;99.90;;;;;;5006966;28;20074;-75
2022/07/23 03:00:54;;;;;;;;;;;15.40;99.90;;;;;;5014807;28;19929;-75
2022/07/23 03:03:21;;;;;;;;;;;15.40;99.90;;;;;;5014500;28;19929;-75
2022/07/23 03:05:49;;;;;;;;;;;15.40;99.90;;;;;;5031435;28;19929;-75
2022/07/23 03:08:15;;;;;;;;;;;15.40;99.90;;;;;;5030592;28;19929;-75
2022/07/23 03:10:46;;;;;;;;;;;15.30;99.90;;;;;;5012073;28;20358;-75
2022/07/23 03:13:13;;;;;;;;;;;15.30;99.90;;;;;;5013869;28;19936;-75
2022/07/23 03:15:40;;;;;;;;;;;15.20;99.90;;;;;;5011960;28;19980;-75
2022/07/23 03:18:07;;;;;;;;;;;15.20;99.90;;;;;;5006627;28;19928;-75
2022/07/23 03:20:34;;;;;;;;;;;15.10;99.90;;;;;;5007308;28;19928;-75
2022/07/23 03:23:02;;;;;;;;;;;15.00;99.90;;;;;;5031144;28;20365;-75
2022/07/23 03:25:30;;;;;;;;;;;15.00;99.90;;;;;;5014421;28;19935;-75
2022/07/23 03:27:56;;;;;;;;;;;14.90;99.90;;;;;;5036291;28;19932;-75
2022/07/23 03:30:24;;;;;;;;;;;14.90;99.90;;;;;;5014728;28;19932;-75
2022/07/23 03:32:51;;;;;;;;;;;14.90;99.90;;;;;;5025508;28;20528;-75
2022/07/23 03:35:18;;;;;;;;;;;14.80;99.90;;;;;;5033919;28;19925;-75
2022/07/23 03:37:57;;;;;;;;;;;14.80;99.90;;;;;;5010349;28;20110;-75
2022/07/23 03:40:27;;;;;;;;;;;14.80;99.90;;;;;;5034646;28;20354;-75
2022/07/23 03:42:54;;;;;;;;;;;14.70;99.90;;;;;;5035125;28;21241;-75
2022/07/23 03:45:21;;;;;;;;;;;14.60;99.90;;;;;;5034009;28;19993;-75
2022/07/23 03:47:48;;;;;;;;;;;14.70;99.90;;;;;;5009756;28;19929;-75
2022/07/23 03:50:15;;;;;;;;;;;14.60;99.90;;;;;;5015783;28;19929;-75
2022/07/23 03:52:42;;;;;;;;;;;14.60;99.90;;;;;;5015631;28;20472;-75
2022/07/23 03:55:09;;;;;;;;;;;14.60;99.90;;;;;;5040856;28;19925;-75
2022/07/23 03:57:37;;;;;;;;;;;14.60;99.90;;;;;;5032770;28;19924;-75
2022/07/23 04:00:05;;;;;;;;;;;14.50;99.90;;;;;;5031811;28;19924;-76
2022/07/23 04:02:40;;;;;;;;;;;14.50;99.90;;;;;;5050238;28;20317;-75
2022/07/23 04:05:08;;;;;;;;;;;14.50;99.90;;;;;;5027970;28;19935;-74
2022/07/23 04:07:35;;;;;;;;;;;14.50;99.90;;;;;;5034601;28;19935;-75
2022/07/23 04:10:03;;;;;;;;;;;14.60;99.90;;;;;;5034004;28;20340;-75
2022/07/23 04:12:30;;;;;;;;;;;14.50;99.90;;;;;;5031513;28;20020;-75
2022/07/23 04:14:58;;;;;;;;;;;14.50;99.90;;;;;;5031217;28;19925;-75
2022/07/23 04:17:25;;;;;;;;;;;14.60;99.90;;;;;;5032303;28;19932;-75
2022/07/23 04:19:51;;;;;;;;;;;14.50;99.90;;;;;;5051626;28;19974;-75
2022/07/23 04:22:22;;;;;;;;;;;14.60;99.90;;;;;;5032179;28;19975;-75
2022/07/23 04:24:50;;;;;;;;;;;14.60;99.90;;;;;;5028570;28;19925;-75
2022/07/23 04:30:00;;;;;;;;;;;14.70;99.90;;;;;;5186825;22;20376;-75
2022/07/23 04:32:26;;;;;;;;;;;14.70;99.90;;;;;;5075422;28;20479;-76
2022/07/23 04:34:53;;;;;;;;;;;14.80;99.90;;;;;;5073843;28;20267;-77
2022/07/23 04:37:20;;;;;;;;;;;14.80;99.90;;;;;;5070641;28;20019;-77
2022/07/23 04:39:47;;;;;;;;;;;14.80;99.90;;;;;;5075134;28;19924;-77
2022/07/23 04:42:13;;;;;;;;;;;14.80;99.90;;;;;;5074888;28;20465;-77
2022/07/23 04:44:41;;;;;;;;;;;14.90;99.90;;;;;;5069788;28;19930;-75
2022/07/23 04:47:10;;;;;;;;;;;14.90;99.90;;;;;;5073392;28;19985;-75
2022/07/23 04:49:37;;;;;;;;;;;15.00;99.90;;;;;;5080052;28;19923;-75
2022/07/23 04:52:04;;;;;;;;;;;15.10;99.90;;;;;;5073088;28;19931;-76
2022/07/23 04:54:30;;;;;;;;;;;15.10;99.90;;;;;;5081685;28;19919;-76
2022/07/23 04:56:57;;;;;;;;;;;15.30;99.90;;;;;;5069830;28;19924;-74
2022/07/23 04:59:24;;;;;;;;;;;15.30;99.90;;;;;;5072467;28;19920;-75
2022/07/23 05:01:57;;;;;;;;;;;15.40;99.90;;;;;;5070907;28;20386;-75
2022/07/23 05:04:25;;;;;;;;;;;15.50;99.90;;;;;;5072267;28;19924;-74
2022/07/23 05:06:51;;;;;;;;;;;15.70;99.90;;;;;;5069546;28;19923;-74
2022/07/23 05:09:18;;;;;;;;;;;15.70;99.90;;;;;;5076930;28;20385;-75
2022/07/23 05:11:45;;;;;;;;;;;15.80;99.90;;;;;;5074911;28;19924;-74
2022/07/23 05:14:12;;;;;;;;;;;15.90;99.90;;;;;;5073710;28;20381;-74
2022/07/23 05:16:39;;;;;;;;;;;16.20;99.90;;;;;;5075717;28;20357;-74
2022/07/23 05:19:11;;;;;;;;;;;16.20;99.90;;;;;;5065309;28;20001;-76
2022/07/23 05:21:39;;;;;;;;;;;16.30;99.90;;;;;;5088191;28;20323;-75
2022/07/23 05:24:07;;;;;;;;;;;16.40;99.90;;;;;;5074257;28;19928;-75
2022/07/23 05:26:33;;;;;;;;;;;16.50;99.90;;;;;;5087702;28;19969;-75
2022/07/23 05:29:00;;;;;;;;;;;16.60;99.90;;;;;;5049507;28;1075310;-76
2022/07/23 05:31:27;;;;;;;;;;;16.80;99.90;;;;;;5070472;28;19928;-76
2022/07/23 05:33:53;;;;;;;;;;;16.90;99.90;;;;;;5070984;28;20016;-75
2022/07/23 05:36:21;;;;;;;;;;;17.10;99.90;;;;;;5077781;28;20300;-76
2022/07/23 05:38:54;;;;;;;;;;;17.30;99.90;;;;;;5070926;28;19924;-76
2022/07/23 05:41:21;;;;;;;;;;;17.50;99.90;;;;;;5077528;28;19952;-76
2022/07/23 05:43:47;;;;;;;;;;;18.30;99.90;;;;;;5076008;28;19927;-76
2022/07/23 05:46:15;;;;;;;;;;;19.20;99.90;;;;;;5069650;28;20304;-76
2022/07/23 05:48:45;;;;;;;;;;;20.20;99.90;;;;;;5070060;28;19920;-76
2022/07/23 05:51:26;;;;;;;;;;;21.10;99.90;;;;;;5067914;28;19924;-76
2022/07/23 05:53:55;;;;;;;;;;;22.00;99.90;;;;;;5073687;28;19942;-76
2022/07/23 05:56:25;;;;;;;;;;;22.70;99.90;;;;;;5080939;28;19924;-76
2022/07/23 05:58:53;;;;;;;;;;;24.00;99.90;;;;;;5071053;28;19924;-76
2022/07/23 06:01:20;;;;;;;;;;;24.00;99.90;;;;;;5075538;28;19924;-77
2022/07/23 06:03:55;;;;;;;;;;;24.70;99.90;;;;;;5071990;28;20362;-76
2022/07/23 06:06:25;;;;;;;;;;;25.40;99.90;;;;;;5079673;28;20339;-76
2022/07/23 06:08:51;;;;;;;;;;;26.00;99.90;;;;;;5071232;28;20382;-76
2022/07/23 06:11:19;;;;;;;;;;;26.70;99.90;;;;;;5071867;28;20298;-76
2022/07/23 06:13:46;;;;;;;;;;;27.20;99.90;;;;;;5093534;28;19923;-76
2022/07/23 06:16:13;;;;;;;;;;;27.60;99.90;;;;;;5067605;28;20396;-76
2022/07/23 06:18:40;;;;;;;;;;;28.10;99.90;;;;;;5069395;28;19977;-75
2022/07/23 06:21:07;;;;;;;;;;;28.60;99.90;;;;;;5076208;28;19953;-76
2022/07/23 06:23:34;;;;;;;;;;;29.10;99.90;;;;;;5074351;28;19920;-76
2022/07/23 06:26:01;;;;;;;;;;;29.50;99.90;;;;;;5075818;28;19931;-75
2022/07/23 06:28:29;;;;;;;;;;;29.80;99.90;;;;;;5068927;28;19924;-76
2022/07/23 06:30:55;;;;;;;;;;;30.20;99.90;;;;;;5087584;28;19920;-76
2022/07/23 06:33:23;;;;;;;;;;;30.50;99.90;;;;;;5064874;28;19924;-76
2022/07/23 06:35:50;;;;;;;;;;;30.80;99.90;;;;;;5071611;28;19925;-76
2022/07/23 06:38:17;;;;;;;;;;;31.10;99.90;;;;;;5086294;28;19932;-76
2022/07/23 06:40:44;;;;;;;;;;;31.20;99.90;;;;;;5069917;28;20000;-78
2022/07/23 06:43:11;;;;;;;;;;;31.40;99.90;;;;;;5069263;28;19924;-78
2022/07/23 06:45:39;;;;;;;;;;;30.90;99.90;;;;;;5067530;28;20113;-78
2022/07/23 06:48:06;;;;;;;;;;;30.70;99.90;;;;;;5069426;28;19924;-78
2022/07/23 06:50:34;;;;;;;;;;;30.80;99.90;;;;;;5092395;28;19924;-79
2022/07/23 06:53:01;;;;;;;;;;;31.20;99.90;;;;;;5072786;28;19977;-78
2022/07/23 06:55:28;;;;;;;;;;;31.80;99.90;;;;;;5084899;28;19931;-79
2022/07/23 06:57:54;;;;;;;;;;;32.30;99.90;;;;;;5072101;28;19924;-79
2022/07/23 07:00:22;;;;;;;;;;;32.80;99.90;;;;;;5086048;28;19943;-79
2022/07/23 07:02:50;;;;;;;;;;;33.30;99.90;;;;;;5066352;28;19924;-78
2022/07/23 07:05:17;;;;;;;;;;;33.70;99.90;;;;;;5067490;28;19924;-79
2022/07/23 07:07:44;;;;;;;;;;;34.20;99.90;;;;;;5087730;28;19946;-79
2022/07/23 07:10:11;;;;;;;;;;;34.40;99.90;;;;;;5077677;28;19931;-79
2022/07/23 07:12:37;;;;;;;;;;;34.90;99.90;;;;;;5084312;28;19981;-78
2022/07/23 07:15:04;;;;;;;;;;;35.00;99.90;;;;;;5082817;28;19924;-78
2022/07/23 07:17:31;;;;;;;;;;;34.50;99.90;;;;;;5091769;28;19972;-79
2022/07/23 07:19:59;;;;;;;;;;;34.60;99.90;;;;;;5087721;28;20415;-79
2022/07/23 07:22:26;;;;;;;;;;;34.40;99.90;;;;;;5087528;28;19923;-78
2022/07/23 07:24:53;;;;;;;;;;;34.10;99.90;;;;;;5085332;28;20399;-78
2022/07/23 07:27:20;;;;;;;;;;;34.20;99.90;;;;;;5082049;28;19924;-77
2022/07/23 07:29:46;;;;;;;;;;;34.60;99.90;;;;;;5086926;28;20399;-77
2022/07/23 07:32:13;;;;;;;;;;;35.00;99.90;;;;;;5085558;28;19924;-78
2022/07/23 07:34:40;;;;;;;;;;;35.20;99.90;;;;;;5086934;28;19924;-78
2022/07/23 07:37:08;;;;;;;;;;;35.50;99.90;;;;;;5080830;28;19924;-78
2022/07/23 07:39:34;;;;;;;;;;;35.90;99.90;;;;;;5085115;28;19924;-78
2022/07/23 07:42:01;;;;;;;;;;;36.40;99.90;;;;;;5080579;28;20307;-78
2022/07/23 07:44:28;;;;;;;;;;;36.40;99.90;;;;;;5078810;28;19923;-80
2022/07/23 07:46:55;;;;;;;;;;;35.90;99.90;;;;;;5089092;22;19928;-78
2022/07/23 07:49:22;;;;;;;;;;;35.90;99.90;;;;;;5064788;28;19920;-77
2022/07/23 07:51:49;;;;;;;;;;;35.00;99.90;;;;;;5067360;28;19928;-77
2022/07/23 07:54:17;;;;;;;;;;;34.90;99.90;;;;;;5063550;28;19925;-77
2022/07/23 07:56:47;;;;;;;;;;;34.20;99.90;;;;;;5059191;28;19921;-79
2022/07/23 07:59:14;;;;;;;;;;;33.30;99.90;;;;;;5066590;28;20733;-81
2022/07/23 08:01:41;;;;;;;;;;;32.60;99.90;;;;;;5060829;28;20297;-80
2022/07/23 08:04:08;;;;;;;;;;;32.20;99.90;;;;;;5070583;28;19920;-80
2022/07/23 08:06:35;;;;;;;;;;;32.20;99.90;;;;;;5044612;28;19931;-78
2022/07/23 08:09:03;;;;;;;;;;;32.30;99.90;;;;;;5078140;28;20027;-77
2022/07/23 08:11:31;;;;;;;;;;;32.60;99.90;;;;;;5070981;28;19924;-80
2022/07/23 08:13:58;;;;;;;;;;;32.70;99.90;;;;;;5057460;28;19927;-78
2022/07/23 08:16:26;;;;;;;;;;;33.00;99.90;;;;;;5057623;28;20387;-81
2022/07/23 08:18:53;;;;;;;;;;;33.40;99.90;;;;;;5075351;28;20459;-81
2022/07/23 08:21:20;;;;;;;;;;;33.60;99.90;;;;;;5087692;28;19920;-80
2022/07/23 08:23:48;;;;;;;;;;;33.50;99.90;;;;;;5077859;28;19923;-77
2022/07/23 08:26:15;;;;;;;;;;;33.00;99.90;;;;;;5078664;28;19932;-78
2022/07/23 08:28:43;;;;;;;;;;;32.60;99.90;;;;;;5082586;28;19927;-79
2022/07/23 08:31:12;;;;;;;;;;;32.50;99.90;;;;;;5062355;28;19981;-78
2022/07/23 08:33:39;;;;;;;;;;;33.50;99.90;;;;;;5079324;28;20043;-78
2022/07/23 08:36:09;;;;;;;;;;;33.60;99.90;;;;;;5079476;28;19932;-79
2022/07/23 08:38:37;;;;;;;;;;;33.80;99.90;;;;;;5052152;28;19924;-78
2022/07/23 08:41:05;;;;;;;;;;;33.90;99.90;;;;;;5082655;28;19924;-77
2022/07/23 08:43:33;;;;;;;;;;;34.20;99.90;;;;;;5083959;28;19935;-78
2022/07/23 08:46:02;;;;;;;;;;;34.30;99.90;;;;;;5077322;28;19943;-79
2022/07/23 08:48:30;;;;;;;;;;;34.20;99.90;;;;;;5056069;28;20121;-80
2022/07/23 08:50:57;;;;;;;;;;;33.90;99.90;;;;;;5068167;28;19943;-79
2022/07/23 08:53:27;;;;;;;;;;;34.00;99.90;;;;;;5092563;28;19920;-80
2022/07/23 08:55:54;;;;;;;;;;;34.00;99.90;;;;;;5089189;28;19924;-79
2022/07/23 08:58:24;;;;;;;;;;;33.90;99.90;;;;;;5082971;28;20330;-80
2022/07/23 09:00:54;;;;;;;;;;;33.90;99.90;;;;;;5077726;28;20375;-77
2022/07/23 09:03:27;;;;;;;;;;;34.00;99.90;;;;;;5060928;28;19935;-81
2022/07/23 09:05:55;;;;;;;;;;;34.00;99.90;;;;;;5072040;28;19920;-81
2022/07/23 09:08:23;;;;;;;;;;;34.00;99.90;;;;;;5077206;28;19924;-81
2022/07/23 09:10:53;;;;;;;;;;;33.90;99.90;;;;;;5060236;28;19971;-78
2022/07/23 09:13:27;;;;;;;;;;;33.90;99.90;;;;;;5060716;28;19969;-79
2022/07/23 09:15:55;;;;;;;;;;;33.70;99.90;;;;;;5070403;28;19924;-79
2022/07/23 09:18:30;;;;;;;;;;;33.60;99.90;;;;;;5075001;28;19958;-81
2022/07/23 09:21:06;;;;;;;;;;;32.80;99.90;;;;;;5069892;28;19920;-81
2022/07/23 09:23:37;;;;;;;;;;;32.40;99.90;;;;;;5079030;28;19923;-81
2022/07/23 09:26:17;;;;;;;;;;;32.30;99.90;;;;;;5090191;28;19924;-81
2022/07/23 09:28:55;;;;;;;;;;;32.30;99.90;;;;;;5056826;28;19921;-79
2022/07/23 09:31:22;;;;;;;;;;;32.20;99.90;;;;;;5041884;28;19944;-79
2022/07/23 09:33:51;;;;;;;;;;;32.10;99.90;;;;;;5060859;28;19932;-79
2022/07/23 09:36:27;;;;;;;;;;;32.00;99.90;;;;;;5054720;28;19932;-78
2022/07/23 09:38:56;;;;;;;;;;;31.60;99.90;;;;;;5067387;28;19950;-79
2022/07/23 09:41:24;;;;;;;;;;;31.60;99.90;;;;;;5057803;28;19925;-80
2022/07/23 09:43:55;;;;;;;;;;;31.10;99.90;;;;;;5056177;28;19928;-82
2022/07/23 09:46:24;;;;;;;;;;;30.60;99.90;;;;;;5051440;28;19920;-80
2022/07/23 09:48:52;;;;;;;;;;;30.20;99.90;;;;;;5074855;28;20011;-80
2022/07/23 09:51:24;;;;;;;;;;;29.90;99.90;;;;;;5059513;28;20339;-81
2022/07/23 09:53:51;;;;;;;;;;;29.70;99.90;;;;;;5074302;28;19924;-81
2022/07/23 09:56:21;;;;;;;;;;;29.40;99.90;;;;;;5050733;28;19924;-79
2022/07/23 09:58:50;;;;;;;;;;;29.10;99.90;;;;;;5065895;28;19920;-80
2022/07/23 10:01:17;;;;;;;;;;;28.60;99.90;;;;;;5057816;28;19927;-81
2022/07/23 10:03:45;;;;;;;;;;;28.00;99.90;;;;;;5070530;28;19955;-78
2022/07/23 10:06:39;;;;;;;;;;;27.50;99.90;;;;;;5046894;28;20358;-80
2022/07/23 10:09:26;;;;;;;;;;;26.70;99.90;;;;;;5074359;28;20086;-82
2022/07/23 10:12:36;;;;;;;;;;;26.40;99.90;;;;;;4994394;28;19938;-79
2022/07/23 10:15:04;;;;;;;;;;;26.30;99.90;;;;;;5057833;28;19963;-81
2022/07/23 10:17:32;;;;;;;;;;;25.90;99.90;;;;;;5064209;28;19991;-80
2022/07/23 10:19:59;;;;;;;;;;;25.60;99.90;;;;;;5081085;28;20035;-80
2022/07/23 10:22:30;;;;;;;;;;;25.40;99.90;;;;;;5066112;28;20406;-80
2022/07/23 10:25:00;;;;;;;;;;;25.30;99.90;;;;;;5066565;28;19932;-82
2022/07/23 10:27:48;;;;;;;;;;;25.20;99.90;;;;;;5076241;28;19964;-79
2022/07/23 10:30:19;;;;;;;;;;;25.10;99.90;;;;;;5094571;28;19955;-80
2022/07/23 10:32:50;;;;;;;;;;;25.20;99.90;;;;;;5060021;28;19921;-83
2022/07/23 10:35:26;;;;;;;;;;;25.30;99.90;;;;;;5052775;28;19986;-81
2022/07/23 10:38:01;;;;;;;;;;;25.20;99.90;;;;;;5077724;28;19920;-80
2022/07/23 10:40:31;;;;;;;;;;;25.30;99.90;;;;;;5081719;28;19924;-81
2022/07/23 10:43:00;;;;;;;;;;;25.30;99.90;;;;;;5083434;28;19924;-81
2022/07/23 10:45:29;;;;;;;;;;;25.30;99.90;;;;;;5061479;28;19924;-81
2022/07/23 10:47:57;;;;;;;;;;;25.20;99.90;;;;;;5059463;28;19924;-81
2022/07/23 10:50:27;;;;;;;;;;;25.20;99.90;;;;;;5051070;28;19925;-83
2022/07/23 10:53:15;;;;;;;;;;;25.20;99.90;;;;;;5064394;28;19924;-82
2022/07/23 10:55:45;;;;;;;;;;;25.20;99.90;;;;;;5062111;28;20347;-81
2022/07/23 10:58:19;;;;;;;;;;;25.20;99.90;;;;;;5082934;28;20006;-82
2022/07/23 11:00:48;;;;;;;;;;;25.20;99.90;;;;;;5072121;28;20027;-81
2022/07/23 11:03:33;;;;;;;;;;;25.40;99.90;;;;;;5058086;28;20031;-80
2022/07/23 11:06:00;;;;;;;;;;;25.60;99.90;;;;;;5065746;28;19942;-81
2022/07/23 11:08:30;;;;;;;;;;;25.70;99.90;;;;;;5085242;28;20007;-82
2022/07/23 11:11:09;;;;;;;;;;;25.90;99.90;;;;;;5056567;28;19983;-83
2022/07/23 11:13:38;;;;;;;;;;;26.00;99.90;;;;;;5056072;28;19928;-86
2022/07/23 11:16:08;;;;;;;;;;;26.00;99.90;;;;;;5077248;28;20291;-81
2022/07/23 11:18:59;;;;;;;;;;;26.20;99.90;;;;;;5059542;28;20027;-79
2022/07/23 11:21:45;;;;;;;;;;;26.40;99.90;;;;;;5061041;28;19929;-83
2022/07/23 11:24:15;;;;;;;;;;;26.50;99.90;;;;;;5060276;28;20525;-81
2022/07/23 11:26:44;;;;;;;;;;;26.60;99.90;;;;;;5080794;28;19921;-81
2022/07/23 11:29:31;;;;;;;;;;;26.60;99.90;;;;;;5064054;28;19920;-78
2022/07/23 11:32:02;;;;;;;;;;;26.50;99.90;;;;;;5080274;28;20019;-79
2022/07/23 11:34:33;;;;;;;;;;;26.70;99.90;;;;;;5059708;28;19936;-80
2022/07/23 11:37:01;;;;;;;;;;;26.70;99.90;;;;;;5070883;28;19925;-78
2022/07/23 11:39:36;;;;;;;;;;;26.80;99.90;;;;;;5074087;28;19928;-79
2022/07/23 11:42:04;;;;;;;;;;;27.00;99.90;;;;;;5077091;28;19924;-80
2022/07/23 11:44:32;;;;;;;;;;;27.00;99.90;;;;;;5075047;28;20546;-80
2022/07/23 11:47:04;;;;;;;;;;;27.00;99.90;;;;;;5074145;28;20844;-81
2022/07/23 11:49:31;;;;;;;;;;;27.00;99.90;;;;;;5073456;28;19931;-81
2022/07/23 11:52:05;;;;;;;;;;;26.80;99.90;;;;;;5058727;28;19928;-80
2022/07/23 11:54:34;;;;;;;;;;;26.90;99.90;;;;;;5053836;28;19924;-84
2022/07/23 11:57:02;;;;;;;;;;;27.00;99.90;;;;;;5066915;28;19984;-82
2022/07/23 11:59:31;;;;;;;;;;;27.10;99.90;;;;;;5078983;28;19932;-78
2022/07/23 12:01:59;;;;;;;;;;;27.20;99.90;;;;;;5061107;28;19927;-79
2022/07/23 12:04:26;;;;;;;;;;;27.20;99.90;;;;;;5059034;28;19924;-79
2022/07/23 12:06:54;;;;;;;;;;;27.20;99.90;;;;;;5068635;28;19924;-79
2022/07/23 12:09:26;;;;;;;;;;;27.20;99.90;;;;;;5059842;28;19920;-79
2022/07/23 12:12:01;;;;;;;;;;;27.20;99.90;;;;;;5055420;28;19930;-78
2022/07/23 12:14:28;;;;;;;;;;;27.20;99.90;;;;;;5061261;28;19920;-78
2022/07/23 12:17:08;;;;;;;;;;;27.30;99.90;;;;;;5066123;28;19928;-78
2022/07/23 12:19:36;;;;;;;;;;;27.30;99.90;;;;;;5061740;28;20383;-79
2022/07/23 12:22:03;;;;;;;;;;;27.40;99.90;;;;;;5085147;28;19928;-79
2022/07/23 12:24:30;;;;;;;;;;;27.40;99.90;;;;;;5072134;28;19977;-79
2022/07/23 12:27:14;;;;;;;;;;;27.50;99.90;;;;;;5071961;28;19940;-81
2022/07/23 12:29:43;;;;;;;;;;;27.50;99.90;;;;;;5062181;28;20391;-80
2022/07/23 12:32:18;;;;;;;;;;;27.50;99.90;;;;;;5074342;28;19963;-79
2022/07/23 12:34:46;;;;;;;;;;;27.60;99.90;;;;;;5084667;28;19920;-79
2022/07/23 12:37:26;;;;;;;;;;;27.70;99.90;;;;;;5057475;28;19970;-79
2022/07/23 12:39:53;;;;;;;;;;;27.70;99.90;;;;;;5054882;28;19922;-82
2022/07/23 12:42:20;;;;;;;;;;;27.80;99.90;;;;;;5062640;28;20064;-79
2022/07/23 12:45:05;;;;;;;;;;;27.80;99.90;;;;;;5062619;28;20013;-80
2022/07/23 12:47:51;;;;;;;;;;;28.10;99.90;;;;;;5059141;28;20415;-80
2022/07/23 12:50:34;;;;;;;;;;;28.30;99.60;;;;;;5050295;28;19924;-80
2022/07/23 12:53:05;;;;;;;;;;;28.40;99.90;;;;;;5076154;28;19920;-79
2022/07/23 12:55:32;;;;;;;;;;;28.50;99.90;;;;;;5064191;28;19932;-82
2022/07/23 12:58:04;;;;;;;;;;;28.50;99.90;;;;;;5061194;28;19921;-81
2022/07/23 13:00:31;;;;;;;;;;;28.60;99.90;;;;;;5061549;28;19924;-81
2022/07/23 13:02:59;;;;;;;;;;;28.80;99.90;;;;;;5078860;28;19918;-80
2022/07/23 13:05:26;;;;;;;;;;;28.80;99.80;;;;;;5069527;28;20048;-83
2022/07/23 13:07:53;;;;;;;;;;;28.80;99.90;;;;;;5062124;28;20015;-80
2022/07/23 13:10:20;;;;;;;;;;;28.90;99.90;;;;;;5080439;28;19927;-82
2022/07/23 13:12:47;;;;;;;;;;;29.10;99.90;;;;;;5083121;28;19936;-82
2022/07/23 13:15:14;;;;;;;;;;;29.10;98.10;;;;;;5068588;28;19924;-81
2022/07/23 13:17:44;;;;;;;;;;;29.00;98.90;;;;;;5063021;28;19928;-82
2022/07/23 13:20:13;;;;;;;;;;;29.10;98.30;;;;;;5061909;28;20310;-82
2022/07/23 13:22:39;;;;;;;;;;;29.10;99.90;;;;;;5077412;28;20303;-81
2022/07/23 13:25:11;;;;;;;;;;;29.10;98.40;;;;;;5081512;28;19920;-81
2022/07/23 13:27:39;;;;;;;;;;;29.30;98.50;;;;;;5062213;28;19924;-82
2022/07/23 13:30:07;;;;;;;;;;;29.30;99.90;;;;;;5071364;28;19928;-82
2022/07/23 13:32:34;;;;;;;;;;;29.40;99.00;;;;;;5062344;28;20330;-82
2022/07/23 13:35:00;;;;;;;;;;;29.40;96.30;;;;;;5066294;28;19928;-82
2022/07/23 13:37:29;;;;;;;;;;;29.50;97.20;;;;;;5058580;28;19994;-82
2022/07/23 13:39:56;;;;;;;;;;;29.70;97.60;;;;;;5057941;28;19921;-82
2022/07/23 13:42:23;;;;;;;;;;;29.80;99.00;;;;;;5070805;28;19928;-82
2022/07/23 13:44:49;;;;;;;;;;;29.80;97.00;;;;;;5054595;28;20337;-83
2022/07/23 13:47:17;;;;;;;;;;;29.70;97.10;;;;;;5065152;28;20234;-82
2022/07/23 13:49:43;;;;;;;;;;;29.80;97.20;;;;;;5063282;28;20608;-82
2022/07/23 13:52:10;;;;;;;;;;;29.80;96.80;;;;;;5058826;28;19923;-82
2022/07/23 13:54:39;;;;;;;;;;;29.80;96.70;;;;;;5079057;28;19924;-83
2022/07/23 13:57:06;;;;;;;;;;;29.90;96.50;;;;;;5082859;28;19991;-82
2022/07/23 13:59:32;;;;;;;;;;;28.60;95.50;;;;;;5070721;28;20387;-79
2022/07/23 14:02:00;;;;;;;;;;;30.20;98.10;;;;;;5077580;28;19928;-81
2022/07/23 14:04:27;;;;;;;;;;;30.20;95.70;;;;;;5077805;28;20236;-82
2022/07/23 14:06:54;;;;;;;;;;;30.30;95.20;;;;;;5078452;28;19920;-82
2022/07/23 14:09:21;;;;;;;;;;;30.30;95.30;;;;;;5064311;28;19929;-82
2022/07/23 14:11:50;;;;;;;;;;;30.20;94.70;;;;;;5080422;28;19925;-82
2022/07/23 14:14:17;;;;;;;;;;;30.20;94.20;;;;;;5079459;28;19927;-81
2022/07/23 14:16:44;;;;;;;;;;;30.50;94.80;;;;;;5077166;28;19928;-82
2022/07/23 14:19:11;;;;;;;;;;;30.20;94.00;;;;;;5066977;28;19920;-81
2022/07/23 14:21:38;;;;;;;;;;;30.20;93.40;;;;;;5069360;28;19920;-80
2022/07/23 14:24:05;;;;;;;;;;;30.20;93.80;;;;;;5071580;28;19920;-82
2022/07/23 14:26:32;;;;;;;;;;;30.30;94.50;;;;;;5057347;28;20323;-82
2022/07/23 14:29:00;;;;;;;;;;;30.40;93.40;;;;;;5060445;28;19932;-82
2022/07/23 14:31:27;;;;;;;;;;;30.40;93.50;;;;;;5078558;28;19953;-84